EGLLLIPY

Guest
Details From EGLL - London Heathrow
To LIPY - Falconara
Flight Number -
Tags Generated
Created
Modified
Stats Distance 731 nm / 1,354 km
Max Altitude 0 ft / 0 m
Waypoints 5
Social Downloads 0
Likes 0
Share VATSIM

Download

Looking for another format? Having issues loading an existing format? Contact us
Advertisement - Login to hide

Notes

Generated

Route

EGLL RANUX LUKOM ROGAK LIPY

ID Type Via Altitude Latitude Longitude Leg Dist Tot Dist Heading (true) Name
O EGLL APT - 0 ft / 0 m 51.46477˚ -0.48695˚ - 0 nm - -
RANUX FIX - 0 ft / 0 m 49.13889˚ 4.36167˚ 232 nm 232 nm 125° / 129° -
LUKOM FIX - 0 ft / 0 m 46.58500˚ 8.75861˚ 234 nm 466 nm 129° / 132° -
ROGAK FIX - 0 ft / 0 m 43.87472˚ 12.90278˚ 239 nm 705 nm 131° / 134° -
O LIPY APT - 0 ft / 0 m 43.60691˚ 13.34935˚ 25 nm 731 nm 130° / 130° -

Altitude Profile

Advertisement - Login to hide

Weather


0- 5 10 15 20 25 30 35+ Temperature / ° C

Clouds and Precipitation
Forecast for 2018-05-20 18:00 UTC. Updated an hour ago

Ground ~20,000 ft ~40,000 ft Winds

EGLL

Details ICAO EGLL (LHR)
Name London Heathrow
Region United Kingdom
Timezone Europe/London (UTC+1.0)
Stats Elevation 83 ft / 25 m (AMSL)
Location 51.471218° -0.460978°
Runways 2
Magnetic Variation 0.497° W

METAR

EGLL 201550Z AUTO 09004KT 040V160 9999 NCD 21/09 Q1020 NOSIG

Decode

TAF

TAF AMD EGLL 201449Z 2014/2118 10005KT 9999 FEW040 BECMG 2023/2102 7000 PROB40 TEMPO 2101/2108 3000 BR BKN004 PROB30 TEMPO 2102/2107 0400 FG BKN001 BECMG 2107/2110 9999 PROB30 TEMPO 2111/2116 7000 SHRA

Decode

Departure Runways

ID Width Length Bearing (true) Bearing (mag) Surface Threshold Offset Overrun Length
09L 164 ft / 50 m 12,811 ft / 3,905 m 89.64° 90.14° Asphalt 1,004 ft / 306 m 0 ft / 0 m
09R 164 ft / 50 m 12,019 ft / 3,663 m 89.67° 90.17° Asphalt 1,007 ft / 307 m 0 ft / 0 m
27L 164 ft / 50 m 12,019 ft / 3,663 m 269.71° 270.21° Asphalt 0 ft / 0 m 69 ft / 21 m
27R 164 ft / 50 m 12,811 ft / 3,905 m 269.69° 270.19° Asphalt 0 ft / 0 m 69 ft / 21 m

LIPY

Details ICAO LIPY (AOI)
Name FALCONARA
Region Italy
Timezone Europe/Rome (UTC+2.0)
Stats Elevation 49 ft / 15 m (AMSL)
Location 43.616351° 13.362310°
Runways 1
Magnetic Variation 3.341° E

METAR

LIPY 201550Z 01005KT 340V040 CAVOK 23/16 Q1013

Decode

TAF

TAF LIPY 201100Z 2012/2112 01012KT CAVOK BECMG 2016/2018 VRB05KT BECMG 2108/2110 02010KT

Decode

Destination Runways

ID Width Length Bearing (true) Bearing (mag) Surface Threshold Offset Overrun Length
04 148 ft / 45 m 9,711 ft / 2,960 m 44.81° 41.47° Asphalt 641 ft / 195 m 0 ft / 0 m
22 148 ft / 45 m 9,711 ft / 2,960 m 224.83° 221.49° Asphalt 492 ft / 150 m 0 ft / 0 m

Approach Navaids

Runway Type Ident Frequency Range Bearing (true) Bearing (mag) Slope Elevation
22 Localiser IFA 111.90 MHz 18 nm / 33 km 224.79° 221.45° - 47 ft / 14 m (AMSL)
22 Glidescope IFA 111.90 MHz 10 nm / 19 km 224.82° 221.48° 3.50° 34 ft / 10 m (AMSL)
22 DME IFA 111.90 MHz 18 nm / 33 km - - - 50 ft / 15 m (AMSL)